sensor_id;sensor_type;location;lat;lon;timestamp;P1;durP1;ratioP1;P2;durP2;ratioP2
8139;SDS011;4111;50.972;7.072;2022-08-27T00:01:12;8.83;;;4.60;;
8139;SDS011;4111;50.972;7.072;2022-08-27T00:03:43;9.83;;;4.67;;
8139;SDS011;4111;50.972;7.072;2022-08-27T00:06:13;5.18;;;4.45;;
8139;SDS011;4111;50.972;7.072;2022-08-27T00:08:42;7.53;;;3.93;;
8139;SDS011;4111;50.972;7.072;2022-08-27T00:11:10;4.77;;;4.27;;
8139;SDS011;4111;50.972;7.072;2022-08-27T00:13:38;5.30;;;4.90;;
8139;SDS011;4111;50.972;7.072;2022-08-27T00:16:06;6.07;;;5.13;;
8139;SDS011;4111;50.972;7.072;2022-08-27T00:18:35;5.03;;;4.53;;
8139;SDS011;4111;50.972;7.072;2022-08-27T00:21:03;5.10;;;4.60;;
8139;SDS011;4111;50.972;7.072;2022-08-27T00:23:32;5.87;;;5.37;;
8139;SDS011;4111;50.972;7.072;2022-08-27T00:25:59;5.70;;;5.30;;
8139;SDS011;4111;50.972;7.072;2022-08-27T00:28:27;8.33;;;6.00;;
8139;SDS011;4111;50.972;7.072;2022-08-27T00:30:54;5.97;;;5.20;;
8139;SDS011;4111;50.972;7.072;2022-08-27T00:33:21;5.73;;;5.13;;
8139;SDS011;4111;50.972;7.072;2022-08-27T00:35:49;5.50;;;5.10;;
8139;SDS011;4111;50.972;7.072;2022-08-27T00:38:16;5.23;;;4.77;;
8139;SDS011;4111;50.972;7.072;2022-08-27T00:40:43;5.53;;;5.03;;
8139;SDS011;4111;50.972;7.072;2022-08-27T00:43:10;6.13;;;4.50;;
8139;SDS011;4111;50.972;7.072;2022-08-27T00:45:38;6.00;;;4.70;;
8139;SDS011;4111;50.972;7.072;2022-08-27T00:48:09;5.20;;;4.23;;
8139;SDS011;4111;50.972;7.072;2022-08-27T00:50:39;5.10;;;4.67;;
8139;SDS011;4111;50.972;7.072;2022-08-27T00:53:12;9.63;;;4.90;;
8139;SDS011;4111;50.972;7.072;2022-08-27T00:55:48;4.27;;;3.90;;
8139;SDS011;4111;50.972;7.072;2022-08-27T00:58:34;6.50;;;5.17;;
8139;SDS011;4111;50.972;7.072;2022-08-27T01:01:05;5.43;;;4.57;;
8139;SDS011;4111;50.972;7.072;2022-08-27T01:03:39;5.40;;;5.00;;
8139;SDS011;4111;50.972;7.072;2022-08-27T01:06:11;5.83;;;4.07;;
8139;SDS011;4111;50.972;7.072;2022-08-27T01:08:43;5.67;;;4.80;;
8139;SDS011;4111;50.972;7.072;2022-08-27T01:11:15;6.23;;;5.40;;
8139;SDS011;4111;50.972;7.072;2022-08-27T01:13:42;5.90;;;5.23;;
8139;SDS011;4111;50.972;7.072;2022-08-27T01:16:27;7.20;;;5.70;;
8139;SDS011;4111;50.972;7.072;2022-08-27T01:19:01;8.13;;;6.50;;
8139;SDS011;4111;50.972;7.072;2022-08-27T01:24:02;7.00;;;6.43;;
8139;SDS011;4111;50.972;7.072;2022-08-27T01:26:30;6.00;;;5.23;;
8139;SDS011;4111;50.972;7.072;2022-08-27T01:28:57;5.63;;;5.17;;
8139;SDS011;4111;50.972;7.072;2022-08-27T01:31:24;6.33;;;4.67;;
8139;SDS011;4111;50.972;7.072;2022-08-27T01:33:52;4.53;;;4.13;;
8139;SDS011;4111;50.972;7.072;2022-08-27T01:36:21;4.97;;;4.50;;
8139;SDS011;4111;50.972;7.072;2022-08-27T01:38:47;5.30;;;4.80;;
8139;SDS011;4111;50.972;7.072;2022-08-27T01:41:14;7.30;;;5.07;;
8139;SDS011;4111;50.972;7.072;2022-08-27T01:43:40;5.67;;;5.17;;
8139;SDS011;4111;50.972;7.072;2022-08-27T01:46:07;8.87;;;6.10;;
8139;SDS011;4111;50.972;7.072;2022-08-27T01:48:33;7.73;;;5.03;;
8139;SDS011;4111;50.972;7.072;2022-08-27T01:51:00;5.60;;;5.10;;
8139;SDS011;4111;50.972;7.072;2022-08-27T01:53:26;7.83;;;5.80;;
8139;SDS011;4111;50.972;7.072;2022-08-27T01:55:53;6.97;;;5.70;;
8139;SDS011;4111;50.972;7.072;2022-08-27T01:58:22;9.43;;;5.63;;
8139;SDS011;4111;50.972;7.072;2022-08-27T02:00:55;4.90;;;4.30;;
8139;SDS011;4111;50.972;7.072;2022-08-27T02:03:25;5.63;;;5.03;;
8139;SDS011;4111;50.972;7.072;2022-08-27T02:05:52;6.03;;;5.53;;
8139;SDS011;4111;50.972;7.072;2022-08-27T02:08:19;6.53;;;4.73;;
8139;SDS011;4111;50.972;7.072;2022-08-27T02:10:47;7.77;;;5.80;;
8139;SDS011;4111;50.972;7.072;2022-08-27T02:13:15;7.20;;;5.93;;
8139;SDS011;4111;50.972;7.072;2022-08-27T02:15:42;6.37;;;5.00;;
8139;SDS011;4111;50.972;7.072;2022-08-27T02:18:10;8.30;;;5.77;;
8139;SDS011;4111;50.972;7.072;2022-08-27T02:20:37;8.23;;;6.53;;
8139;SDS011;4111;50.972;7.072;2022-08-27T02:23:05;7.67;;;6.47;;
8139;SDS011;4111;50.972;7.072;2022-08-27T02:25:31;11.43;;;6.57;;
8139;SDS011;4111;50.972;7.072;2022-08-27T02:27:59;10.37;;;6.90;;
8139;SDS011;4111;50.972;7.072;2022-08-27T02:30:27;8.97;;;6.47;;
8139;SDS011;4111;50.972;7.072;2022-08-27T02:32:54;8.00;;;7.20;;
8139;SDS011;4111;50.972;7.072;2022-08-27T02:35:22;11.53;;;8.67;;
8139;SDS011;4111;50.972;7.072;2022-08-27T02:37:50;11.50;;;8.97;;
8139;SDS011;4111;50.972;7.072;2022-08-27T02:40:18;10.17;;;9.17;;
8139;SDS011;4111;50.972;7.072;2022-08-27T02:42:46;8.90;;;8.00;;
8139;SDS011;4111;50.972;7.072;2022-08-27T02:45:13;12.17;;;9.00;;
8139;SDS011;4111;50.972;7.072;2022-08-27T02:47:41;12.63;;;11.30;;
8139;SDS011;4111;50.972;7.072;2022-08-27T02:50:08;12.40;;;11.10;;
8139;SDS011;4111;50.972;7.072;2022-08-27T02:52:35;16.97;;;13.63;;
8139;SDS011;4111;50.972;7.072;2022-08-27T02:55:03;12.97;;;11.57;;
8139;SDS011;4111;50.972;7.072;2022-08-27T02:57:30;16.27;;;14.27;;
8139;SDS011;4111;50.972;7.072;2022-08-27T03:00:03;15.77;;;13.97;;
8139;SDS011;4111;50.972;7.072;2022-08-27T03:02:32;17.80;;;14.37;;
8139;SDS011;4111;50.972;7.072;2022-08-27T03:04:58;20.27;;;15.10;;
8139;SDS011;4111;50.972;7.072;2022-08-27T03:07:25;17.03;;;15.30;;
8139;SDS011;4111;50.972;7.072;2022-08-27T03:09:51;18.17;;;16.37;;
8139;SDS011;4111;50.972;7.072;2022-08-27T03:12:18;17.80;;;14.87;;
8139;SDS011;4111;50.972;7.072;2022-08-27T03:14:47;16.73;;;15.03;;
8139;SDS011;4111;50.972;7.072;2022-08-27T03:17:14;16.60;;;15.00;;
8139;SDS011;4111;50.972;7.072;2022-08-27T03:19:59;16.37;;;14.10;;
8139;SDS011;4111;50.972;7.072;2022-08-27T03:22:27;19.40;;;14.97;;
8139;SDS011;4111;50.972;7.072;2022-08-27T03:24:53;19.13;;;15.40;;
8139;SDS011;4111;50.972;7.072;2022-08-27T03:27:21;15.97;;;14.37;;
8139;SDS011;4111;50.972;7.072;2022-08-27T03:29:48;17.13;;;15.30;;
8139;SDS011;4111;50.972;7.072;2022-08-27T03:32:14;20.17;;;15.13;;
8139;SDS011;4111;50.972;7.072;2022-08-27T03:34:40;15.47;;;12.80;;
8139;SDS011;4111;50.972;7.072;2022-08-27T03:37:07;17.73;;;12.43;;
8139;SDS011;4111;50.972;7.072;2022-08-27T03:39:34;12.67;;;10.83;;
8139;SDS011;4111;50.972;7.072;2022-08-27T03:42:01;14.03;;;10.87;;
8139;SDS011;4111;50.972;7.072;2022-08-27T03:44:27;13.90;;;11.13;;
8139;SDS011;4111;50.972;7.072;2022-08-27T03:46:54;12.27;;;10.10;;
8139;SDS011;4111;50.972;7.072;2022-08-27T03:49:20;14.37;;;9.07;;
8139;SDS011;4111;50.972;7.072;2022-08-27T03:51:49;11.40;;;8.67;;
8139;SDS011;4111;50.972;7.072;2022-08-27T03:54:17;11.70;;;10.03;;
8139;SDS011;4111;50.972;7.072;2022-08-27T03:56:43;14.33;;;9.87;;
8139;SDS011;4111;50.972;7.072;2022-08-27T03:59:10;11.43;;;10.17;;
8139;SDS011;4111;50.972;7.072;2022-08-27T04:01:37;12.13;;;9.10;;
8139;SDS011;4111;50.972;7.072;2022-08-27T04:04:03;12.50;;;9.43;;
8139;SDS011;4111;50.972;7.072;2022-08-27T04:06:30;13.00;;;10.90;;
8139;SDS011;4111;50.972;7.072;2022-08-27T04:08:58;15.10;;;10.50;;
8139;SDS011;4111;50.972;7.072;2022-08-27T04:11:25;15.13;;;9.17;;
8139;SDS011;4111;50.972;7.072;2022-08-27T04:13:54;11.20;;;9.90;;
8139;SDS011;4111;50.972;7.072;2022-08-27T04:16:21;13.80;;;9.50;;
8139;SDS011;4111;50.972;7.072;2022-08-27T04:18:48;17.27;;;9.60;;
8139;SDS011;4111;50.972;7.072;2022-08-27T04:21:14;19.47;;;10.57;;
8139;SDS011;4111;50.972;7.072;2022-08-27T04:23:41;11.10;;;9.40;;
8139;SDS011;4111;50.972;7.072;2022-08-27T04:26:08;14.30;;;9.70;;
8139;SDS011;4111;50.972;7.072;2022-08-27T04:28:36;10.30;;;8.90;;
8139;SDS011;4111;50.972;7.072;2022-08-27T04:31:04;15.73;;;9.80;;
8139;SDS011;4111;50.972;7.072;2022-08-27T04:33:41;14.20;;;8.77;;
8139;SDS011;4111;50.972;7.072;2022-08-27T04:36:16;14.03;;;9.70;;
8139;SDS011;4111;50.972;7.072;2022-08-27T04:38:42;13.97;;;9.23;;
8139;SDS011;4111;50.972;7.072;2022-08-27T04:41:09;13.73;;;10.03;;
8139;SDS011;4111;50.972;7.072;2022-08-27T04:43:47;15.40;;;10.67;;
8139;SDS011;4111;50.972;7.072;2022-08-27T04:46:22;12.87;;;10.17;;
8139;SDS011;4111;50.972;7.072;2022-08-27T04:48:51;15.43;;;11.97;;
8139;SDS011;4111;50.972;7.072;2022-08-27T04:51:19;19.03;;;12.50;;
8139;SDS011;4111;50.972;7.072;2022-08-27T04:53:46;19.67;;;12.83;;
8139;SDS011;4111;50.972;7.072;2022-08-27T04:56:15;14.23;;;11.70;;
8139;SDS011;4111;50.972;7.072;2022-08-27T04:58:44;17.73;;;12.47;;
8139;SDS011;4111;50.972;7.072;2022-08-27T05:01:15;16.73;;;13.43;;
8139;SDS011;4111;50.972;7.072;2022-08-27T05:03:46;17.90;;;12.57;;
8139;SDS011;4111;50.972;7.072;2022-08-27T05:06:14;16.07;;;12.83;;
8139;SDS011;4111;50.972;7.072;2022-08-27T05:08:40;21.47;;;13.03;;
8139;SDS011;4111;50.972;7.072;2022-08-27T05:11:08;14.23;;;12.73;;
8139;SDS011;4111;50.972;7.072;2022-08-27T05:13:36;15.13;;;11.73;;
8139;SDS011;4111;50.972;7.072;2022-08-27T05:16:05;19.07;;;13.17;;
8139;SDS011;4111;50.972;7.072;2022-08-27T05:18:33;17.67;;;12.40;;
8139;SDS011;4111;50.972;7.072;2022-08-27T05:21:17;15.63;;;11.87;;
8139;SDS011;4111;50.972;7.072;2022-08-27T05:23:49;16.67;;;12.77;;
8139;SDS011;4111;50.972;7.072;2022-08-27T05:26:17;18.37;;;12.80;;
8139;SDS011;4111;50.972;7.072;2022-08-27T05:28:43;17.37;;;12.17;;
8139;SDS011;4111;50.972;7.072;2022-08-27T05:31:11;16.73;;;11.57;;
8139;SDS011;4111;50.972;7.072;2022-08-27T05:33:38;15.70;;;11.20;;
8139;SDS011;4111;50.972;7.072;2022-08-27T05:36:06;16.47;;;10.53;;
8139;SDS011;4111;50.972;7.072;2022-08-27T05:38:39;14.80;;;9.67;;
8139;SDS011;4111;50.972;7.072;2022-08-27T05:41:11;15.07;;;9.67;;
8139;SDS011;4111;50.972;7.072;2022-08-27T05:43:40;14.80;;;9.63;;
8139;SDS011;4111;50.972;7.072;2022-08-27T05:46:15;13.90;;;9.67;;
8139;SDS011;4111;50.972;7.072;2022-08-27T05:48:43;13.90;;;8.80;;
8139;SDS011;4111;50.972;7.072;2022-08-27T05:53:41;17.03;;;9.10;;
8139;SDS011;4111;50.972;7.072;2022-08-27T05:56:12;13.50;;;8.03;;
8139;SDS011;4111;50.972;7.072;2022-08-27T05:58:41;12.50;;;7.57;;
8139;SDS011;4111;50.972;7.072;2022-08-27T06:01:26;9.50;;;7.37;;
8139;SDS011;4111;50.972;7.072;2022-08-27T06:03:55;16.07;;;8.20;;
8139;SDS011;4111;50.972;7.072;2022-08-27T06:06:22;12.40;;;7.43;;
8139;SDS011;4111;50.972;7.072;2022-08-27T06:08:49;9.70;;;7.67;;
8139;SDS011;4111;50.972;7.072;2022-08-27T06:11:18;12.20;;;8.23;;
8139;SDS011;4111;50.972;7.072;2022-08-27T06:13:44;9.33;;;7.30;;
8139;SDS011;4111;50.972;7.072;2022-08-27T06:16:12;15.03;;;8.60;;
8139;SDS011;4111;50.972;7.072;2022-08-27T06:18:43;9.53;;;8.10;;
8139;SDS011;4111;50.972;7.072;2022-08-27T06:21:11;9.33;;;8.07;;
8139;SDS011;4111;50.972;7.072;2022-08-27T06:23:39;10.50;;;7.67;;
8139;SDS011;4111;50.972;7.072;2022-08-27T06:26:07;9.73;;;7.17;;
8139;SDS011;4111;50.972;7.072;2022-08-27T06:28:35;10.90;;;7.73;;
8139;SDS011;4111;50.972;7.072;2022-08-27T06:31:03;8.87;;;6.90;;
8139;SDS011;4111;50.972;7.072;2022-08-27T06:33:29;7.90;;;6.10;;
8139;SDS011;4111;50.972;7.072;2022-08-27T06:36:00;9.93;;;5.80;;
8139;SDS011;4111;50.972;7.072;2022-08-27T06:38:28;13.23;;;6.20;;
8139;SDS011;4111;50.972;7.072;2022-08-27T06:40:54;11.40;;;6.00;;
8139;SDS011;4111;50.972;7.072;2022-08-27T06:43:22;9.63;;;5.77;;
8139;SDS011;4111;50.972;7.072;2022-08-27T06:45:50;7.80;;;5.80;;
8139;SDS011;4111;50.972;7.072;2022-08-27T06:48:18;7.30;;;5.87;;
8139;SDS011;4111;50.972;7.072;2022-08-27T06:50:45;9.93;;;6.27;;
8139;SDS011;4111;50.972;7.072;2022-08-27T06:53:11;6.57;;;5.40;;
8139;SDS011;4111;50.972;7.072;2022-08-27T06:55:46;7.47;;;5.40;;
8139;SDS011;4111;50.972;7.072;2022-08-27T06:58:14;8.43;;;5.43;;
8139;SDS011;4111;50.972;7.072;2022-08-27T07:00:42;9.07;;;5.57;;
8139;SDS011;4111;50.972;7.072;2022-08-27T07:03:14;7.17;;;5.17;;
8139;SDS011;4111;50.972;7.072;2022-08-27T07:05:40;7.13;;;5.93;;
8139;SDS011;4111;50.972;7.072;2022-08-27T07:08:07;8.50;;;5.67;;
8139;SDS011;4111;50.972;7.072;2022-08-27T07:10:35;8.43;;;5.83;;
8139;SDS011;4111;50.972;7.072;2022-08-27T07:13:02;6.60;;;5.57;;
8139;SDS011;4111;50.972;7.072;2022-08-27T07:15:30;10.07;;;5.20;;
8139;SDS011;4111;50.972;7.072;2022-08-27T07:17:59;10.50;;;6.10;;
8139;SDS011;4111;50.972;7.072;2022-08-27T07:20:25;7.30;;;5.50;;
8139;SDS011;4111;50.972;7.072;2022-08-27T07:22:52;6.40;;;4.80;;
8139;SDS011;4111;50.972;7.072;2022-08-27T07:25:19;6.77;;;6.00;;
8139;SDS011;4111;50.972;7.072;2022-08-27T07:27:47;6.00;;;5.33;;
8139;SDS011;4111;50.972;7.072;2022-08-27T07:30:14;7.53;;;5.93;;
8139;SDS011;4111;50.972;7.072;2022-08-27T07:32:43;9.10;;;5.70;;
8139;SDS011;4111;50.972;7.072;2022-08-27T07:35:11;7.13;;;5.60;;
8139;SDS011;4111;50.972;7.072;2022-08-27T07:37:39;6.97;;;5.93;;
8139;SDS011;4111;50.972;7.072;2022-08-27T07:40:08;8.47;;;5.63;;
8139;SDS011;4111;50.972;7.072;2022-08-27T07:42:39;7.70;;;5.97;;
8139;SDS011;4111;50.972;7.072;2022-08-27T07:45:25;7.37;;;6.57;;
8139;SDS011;4111;50.972;7.072;2022-08-27T07:47:53;9.27;;;6.80;;
8139;SDS011;4111;50.972;7.072;2022-08-27T07:50:19;7.60;;;6.30;;
8139;SDS011;4111;50.972;7.072;2022-08-27T07:52:49;6.97;;;6.30;;
8139;SDS011;4111;50.972;7.072;2022-08-27T07:55:16;6.90;;;6.20;;
8139;SDS011;4111;50.972;7.072;2022-08-27T07:57:44;7.37;;;6.67;;
8139;SDS011;4111;50.972;7.072;2022-08-27T08:00:13;7.13;;;6.40;;
8139;SDS011;4111;50.972;7.072;2022-08-27T08:02:39;7.13;;;6.53;;
8139;SDS011;4111;50.972;7.072;2022-08-27T08:05:07;6.73;;;6.00;;
8139;SDS011;4111;50.972;7.072;2022-08-27T08:07:35;7.03;;;6.33;;
8139;SDS011;4111;50.972;7.072;2022-08-27T08:10:04;7.40;;;6.63;;
8139;SDS011;4111;50.972;7.072;2022-08-27T08:12:34;8.77;;;6.63;;
8139;SDS011;4111;50.972;7.072;2022-08-27T08:15:02;8.00;;;6.17;;
8139;SDS011;4111;50.972;7.072;2022-08-27T08:17:34;7.10;;;6.40;;
8139;SDS011;4111;50.972;7.072;2022-08-27T08:20:03;6.57;;;5.97;;
8139;SDS011;4111;50.972;7.072;2022-08-27T08:22:51;5.93;;;5.43;;
8139;SDS011;4111;50.972;7.072;2022-08-27T08:25:18;6.93;;;5.60;;
8139;SDS011;4111;50.972;7.072;2022-08-27T08:27:44;6.33;;;5.43;;
8139;SDS011;4111;50.972;7.072;2022-08-27T08:30:12;6.97;;;6.10;;
8139;SDS011;4111;50.972;7.072;2022-08-27T08:32:40;8.00;;;5.67;;
8139;SDS011;4111;50.972;7.072;2022-08-27T08:35:08;8.90;;;7.53;;
8139;SDS011;4111;50.972;7.072;2022-08-27T08:37:35;6.93;;;5.93;;
8139;SDS011;4111;50.972;7.072;2022-08-27T08:40:03;8.30;;;5.93;;
8139;SDS011;4111;50.972;7.072;2022-08-27T08:42:36;8.23;;;5.53;;
8139;SDS011;4111;50.972;7.072;2022-08-27T08:45:10;7.90;;;5.60;;
8139;SDS011;4111;50.972;7.072;2022-08-27T08:47:47;7.83;;;5.83;;
8139;SDS011;4111;50.972;7.072;2022-08-27T08:50:20;8.80;;;5.77;;
8139;SDS011;4111;50.972;7.072;2022-08-27T08:56:00;7.47;;;5.43;;
8139;SDS011;4111;50.972;7.072;2022-08-27T09:01:11;11.10;;;5.00;;
8139;SDS011;4111;50.972;7.072;2022-08-27T09:03:41;7.23;;;4.70;;
8139;SDS011;4111;50.972;7.072;2022-08-27T09:06:19;7.97;;;5.53;;
8139;SDS011;4111;50.972;7.072;2022-08-27T09:08:52;7.37;;;5.50;;
8139;SDS011;4111;50.972;7.072;2022-08-27T09:13:59;11.80;;;5.13;;
8139;SDS011;4111;50.972;7.072;2022-08-27T09:16:30;7.47;;;5.67;;
8139;SDS011;4111;50.972;7.072;2022-08-27T09:19:00;7.23;;;5.47;;
8139;SDS011;4111;50.972;7.072;2022-08-27T09:26:50;7.97;;;4.90;;
8139;SDS011;4111;50.972;7.072;2022-08-27T09:29:17;8.27;;;5.47;;
8139;SDS011;4111;50.972;7.072;2022-08-27T09:31:53;6.37;;;5.53;;
8139;SDS011;4111;50.972;7.072;2022-08-27T09:34:21;12.87;;;5.47;;
8139;SDS011;4111;50.972;7.072;2022-08-27T09:36:53;7.13;;;5.17;;
8139;SDS011;4111;50.972;7.072;2022-08-27T09:39:34;7.63;;;4.20;;
8139;SDS011;4111;50.972;7.072;2022-08-27T09:45:05;9.20;;;5.27;;
8139;SDS011;4111;50.972;7.072;2022-08-27T09:48:21;7.33;;;5.00;;
8139;SDS011;4111;50.972;7.072;2022-08-27T09:50:46;5.83;;;4.50;;
8139;SDS011;4111;50.972;7.072;2022-08-27T09:53:26;9.43;;;5.00;;
8139;SDS011;4111;50.972;7.072;2022-08-27T09:59:05;8.27;;;5.30;;
8139;SDS011;4111;50.972;7.072;2022-08-27T10:01:33;8.80;;;5.17;;
8139;SDS011;4111;50.972;7.072;2022-08-27T10:04:08;8.33;;;5.33;;
8139;SDS011;4111;50.972;7.072;2022-08-27T10:06:44;6.67;;;4.73;;
8139;SDS011;4111;50.972;7.072;2022-08-27T10:09:14;5.70;;;4.17;;
8139;SDS011;4111;50.972;7.072;2022-08-27T10:12:28;5.67;;;4.40;;
8139;SDS011;4111;50.972;7.072;2022-08-27T10:14:47;6.27;;;4.90;;
8139;SDS011;4111;50.972;7.072;2022-08-27T10:20:07;6.00;;;4.20;;
8139;SDS011;4111;50.972;7.072;2022-08-27T10:25:57;8.80;;;4.33;;
8139;SDS011;4111;50.972;7.072;2022-08-27T10:31:27;6.97;;;3.80;;
8139;SDS011;4111;50.972;7.072;2022-08-27T10:40:09;12.33;;;3.97;;
8139;SDS011;4111;50.972;7.072;2022-08-27T10:42:46;7.27;;;4.43;;
8139;SDS011;4111;50.972;7.072;2022-08-27T10:45:27;6.47;;;4.60;;
8139;SDS011;4111;50.972;7.072;2022-08-27T10:51:09;14.03;;;5.27;;
8139;SDS011;4111;50.972;7.072;2022-08-27T10:53:50;6.80;;;4.70;;
8139;SDS011;4111;50.972;7.072;2022-08-27T10:56:32;8.53;;;4.40;;
8139;SDS011;4111;50.972;7.072;2022-08-27T11:04:05;9.03;;;4.93;;
8139;SDS011;4111;50.972;7.072;2022-08-27T11:06:40;7.63;;;5.03;;
8139;SDS011;4111;50.972;7.072;2022-08-27T11:11:47;7.17;;;4.77;;
8139;SDS011;4111;50.972;7.072;2022-08-27T11:14:59;6.43;;;4.67;;
8139;SDS011;4111;50.972;7.072;2022-08-27T11:17:28;6.43;;;4.70;;
8139;SDS011;4111;50.972;7.072;2022-08-27T11:22:45;5.20;;;4.67;;
8139;SDS011;4111;50.972;7.072;2022-08-27T11:28:01;5.63;;;4.40;;
8139;SDS011;4111;50.972;7.072;2022-08-27T11:30:34;6.13;;;4.47;;
8139;SDS011;4111;50.972;7.072;2022-08-27T11:33:13;5.30;;;4.47;;
8139;SDS011;4111;50.972;7.072;2022-08-27T11:36:08;6.33;;;4.43;;
8139;SDS011;4111;50.972;7.072;2022-08-27T11:41:36;9.43;;;4.47;;
8139;SDS011;4111;50.972;7.072;2022-08-27T11:44:13;5.00;;;4.20;;
8139;SDS011;4111;50.972;7.072;2022-08-27T11:46:45;5.97;;;3.80;;
8139;SDS011;4111;50.972;7.072;2022-08-27T11:49:25;8.23;;;3.83;;
8139;SDS011;4111;50.972;7.072;2022-08-27T11:51:56;6.60;;;4.20;;
8139;SDS011;4111;50.972;7.072;2022-08-27T11:54:27;7.73;;;3.97;;
8139;SDS011;4111;50.972;7.072;2022-08-27T11:56:57;7.10;;;3.93;;
8139;SDS011;4111;50.972;7.072;2022-08-27T11:59:29;6.00;;;3.67;;
8139;SDS011;4111;50.972;7.072;2022-08-27T12:08:12;6.37;;;3.20;;
8139;SDS011;4111;50.972;7.072;2022-08-27T12:16:42;5.80;;;3.37;;
8139;SDS011;4111;50.972;7.072;2022-08-27T12:21:56;7.17;;;3.10;;
8139;SDS011;4111;50.972;7.072;2022-08-27T12:29:51;6.67;;;3.40;;
8139;SDS011;4111;50.972;7.072;2022-08-27T12:32:38;9.57;;;4.17;;
8139;SDS011;4111;50.972;7.072;2022-08-27T12:35:15;8.60;;;4.07;;
8139;SDS011;4111;50.972;7.072;2022-08-27T12:37:50;5.17;;;3.60;;
8139;SDS011;4111;50.972;7.072;2022-08-27T12:40:24;11.93;;;4.80;;
8139;SDS011;4111;50.972;7.072;2022-08-27T12:43:05;5.60;;;5.10;;
8139;SDS011;4111;50.972;7.072;2022-08-27T12:45:45;5.33;;;4.83;;
8139;SDS011;4111;50.972;7.072;2022-08-27T12:48:19;6.37;;;5.23;;
8139;SDS011;4111;50.972;7.072;2022-08-27T12:50:51;6.80;;;5.50;;
8139;SDS011;4111;50.972;7.072;2022-08-27T12:56:02;8.23;;;5.47;;
8139;SDS011;4111;50.972;7.072;2022-08-27T13:04:26;8.67;;;6.30;;
8139;SDS011;4111;50.972;7.072;2022-08-27T13:06:56;8.37;;;6.37;;
8139;SDS011;4111;50.972;7.072;2022-08-27T13:09:29;6.77;;;5.50;;
8139;SDS011;4111;50.972;7.072;2022-08-27T13:11:59;10.97;;;5.70;;
8139;SDS011;4111;50.972;7.072;2022-08-27T13:14:27;6.03;;;4.80;;
8139;SDS011;4111;50.972;7.072;2022-08-27T13:17:03;7.27;;;4.53;;
8139;SDS011;4111;50.972;7.072;2022-08-27T13:19:34;7.07;;;4.18;;
8139;SDS011;4111;50.972;7.072;2022-08-27T13:22:08;5.27;;;4.10;;
8139;SDS011;4111;50.972;7.072;2022-08-27T13:24:36;5.87;;;4.07;;
8139;SDS011;4111;50.972;7.072;2022-08-27T13:27:11;4.27;;;3.87;;
8139;SDS011;4111;50.972;7.072;2022-08-27T13:29:38;7.57;;;3.77;;
8139;SDS011;4111;50.972;7.072;2022-08-27T13:32:06;7.77;;;3.97;;
8139;SDS011;4111;50.972;7.072;2022-08-27T13:34:37;8.77;;;3.53;;
8139;SDS011;4111;50.972;7.072;2022-08-27T13:37:25;6.85;;;3.03;;
8139;SDS011;4111;50.972;7.072;2022-08-27T13:40:01;7.37;;;4.17;;
8139;SDS011;4111;50.972;7.072;2022-08-27T13:42:29;3.33;;;3.03;;
8139;SDS011;4111;50.972;7.072;2022-08-27T13:44:59;5.20;;;3.30;;
8139;SDS011;4111;50.972;7.072;2022-08-27T13:47:28;4.25;;;3.05;;
8139;SDS011;4111;50.972;7.072;2022-08-27T13:50:03;7.43;;;3.67;;
8139;SDS011;4111;50.972;7.072;2022-08-27T13:52:33;6.40;;;3.40;;
8139;SDS011;4111;50.972;7.072;2022-08-27T13:55:22;5.05;;;3.70;;
8139;SDS011;4111;50.972;7.072;2022-08-27T13:57:49;5.28;;;3.38;;
8139;SDS011;4111;50.972;7.072;2022-08-27T14:02:58;8.77;;;4.33;;
8139;SDS011;4111;50.972;7.072;2022-08-27T14:05:30;6.70;;;5.60;;
8139;SDS011;4111;50.972;7.072;2022-08-27T14:08:01;8.05;;;3.97;;
8139;SDS011;4111;50.972;7.072;2022-08-27T14:10:39;5.57;;;3.70;;
8139;SDS011;4111;50.972;7.072;2022-08-27T14:13:10;3.47;;;3.17;;
8139;SDS011;4111;50.972;7.072;2022-08-27T14:15:52;4.80;;;3.40;;
8139;SDS011;4111;50.972;7.072;2022-08-27T14:21:15;5.93;;;3.53;;
8139;SDS011;4111;50.972;7.072;2022-08-27T14:23:41;9.00;;;3.72;;
8139;SDS011;4111;50.972;7.072;2022-08-27T14:26:08;9.70;;;3.60;;
8139;SDS011;4111;50.972;7.072;2022-08-27T14:28:35;7.43;;;3.35;;
8139;SDS011;4111;50.972;7.072;2022-08-27T14:31:02;6.35;;;3.58;;
8139;SDS011;4111;50.972;7.072;2022-08-27T14:33:28;4.38;;;3.22;;
8139;SDS011;4111;50.972;7.072;2022-08-27T14:35:55;10.85;;;3.85;;
8139;SDS011;4111;50.972;7.072;2022-08-27T14:38:23;8.15;;;4.00;;
8139;SDS011;4111;50.972;7.072;2022-08-27T14:40:56;5.40;;;4.20;;
8139;SDS011;4111;50.972;7.072;2022-08-27T14:43:23;4.27;;;3.60;;
8139;SDS011;4111;50.972;7.072;2022-08-27T14:45:50;9.85;;;3.90;;
8139;SDS011;4111;50.972;7.072;2022-08-27T14:48:19;6.25;;;3.92;;
8139;SDS011;4111;50.972;7.072;2022-08-27T14:50:54;7.17;;;4.30;;
8139;SDS011;4111;50.972;7.072;2022-08-27T14:53:24;5.40;;;4.20;;
8139;SDS011;4111;50.972;7.072;2022-08-27T14:55:52;9.37;;;6.83;;
8139;SDS011;4111;50.972;7.072;2022-08-27T14:58:20;9.77;;;5.97;;
8139;SDS011;4111;50.972;7.072;2022-08-27T15:00:47;7.35;;;5.43;;
8139;SDS011;4111;50.972;7.072;2022-08-27T15:03:14;7.45;;;5.15;;
8139;SDS011;4111;50.972;7.072;2022-08-27T15:05:40;8.13;;;4.07;;
8139;SDS011;4111;50.972;7.072;2022-08-27T15:08:08;5.28;;;3.70;;
8139;SDS011;4111;50.972;7.072;2022-08-27T15:10:38;5.27;;;4.33;;
8139;SDS011;4111;50.972;7.072;2022-08-27T15:13:06;5.65;;;3.50;;
8139;SDS011;4111;50.972;7.072;2022-08-27T15:15:34;4.90;;;3.20;;
8139;SDS011;4111;50.972;7.072;2022-08-27T15:18:01;4.35;;;3.88;;
8139;SDS011;4111;50.972;7.072;2022-08-27T15:20:27;7.47;;;3.80;;
8139;SDS011;4111;50.972;7.072;2022-08-27T15:22:54;6.40;;;3.50;;
8139;SDS011;4111;50.972;7.072;2022-08-27T15:25:21;6.43;;;3.27;;
8139;SDS011;4111;50.972;7.072;2022-08-27T15:27:47;6.32;;;3.22;;
8139;SDS011;4111;50.972;7.072;2022-08-27T15:30:14;6.57;;;3.67;;
8139;SDS011;4111;50.972;7.072;2022-08-27T15:32:43;4.95;;;4.00;;
8139;SDS011;4111;50.972;7.072;2022-08-27T15:35:13;11.07;;;3.40;;
8139;SDS011;4111;50.972;7.072;2022-08-27T15:37:42;7.60;;;3.60;;
8139;SDS011;4111;50.972;7.072;2022-08-27T15:40:10;7.03;;;3.33;;
8139;SDS011;4111;50.972;7.072;2022-08-27T15:42:39;6.07;;;4.28;;
8139;SDS011;4111;50.972;7.072;2022-08-27T15:45:07;4.60;;;4.13;;
8139;SDS011;4111;50.972;7.072;2022-08-27T15:47:35;8.63;;;5.22;;
8139;SDS011;4111;50.972;7.072;2022-08-27T15:50:01;6.43;;;4.93;;
8139;SDS011;4111;50.972;7.072;2022-08-27T15:52:28;8.00;;;4.97;;
8139;SDS011;4111;50.972;7.072;2022-08-27T15:55:10;9.20;;;5.38;;
8139;SDS011;4111;50.972;7.072;2022-08-27T15:57:43;10.45;;;5.57;;
8139;SDS011;4111;50.972;7.072;2022-08-27T16:00:09;8.55;;;6.40;;
8139;SDS011;4111;50.972;7.072;2022-08-27T16:02:36;7.53;;;5.97;;
8139;SDS011;4111;50.972;7.072;2022-08-27T16:05:03;9.43;;;6.03;;
8139;SDS011;4111;50.972;7.072;2022-08-27T16:07:30;9.90;;;5.60;;
8139;SDS011;4111;50.972;7.072;2022-08-27T16:09:56;8.10;;;5.37;;
8139;SDS011;4111;50.972;7.072;2022-08-27T16:12:23;8.93;;;4.95;;
8139;SDS011;4111;50.972;7.072;2022-08-27T16:14:53;11.85;;;5.55;;
8139;SDS011;4111;50.972;7.072;2022-08-27T16:17:20;7.00;;;5.30;;
8139;SDS011;4111;50.972;7.072;2022-08-27T16:19:47;6.30;;;5.70;;
8139;SDS011;4111;50.972;7.072;2022-08-27T16:22:14;15.93;;;9.63;;
8139;SDS011;4111;50.972;7.072;2022-08-27T16:24:41;12.60;;;6.20;;
8139;SDS011;4111;50.972;7.072;2022-08-27T16:27:08;18.40;;;13.80;;
8139;SDS011;4111;50.972;7.072;2022-08-27T16:29:34;10.07;;;6.90;;
8139;SDS011;4111;50.972;7.072;2022-08-27T16:32:01;10.45;;;7.63;;
8139;SDS011;4111;50.972;7.072;2022-08-27T16:34:29;7.43;;;4.87;;
8139;SDS011;4111;50.972;7.072;2022-08-27T16:36:56;8.03;;;4.70;;
8139;SDS011;4111;50.972;7.072;2022-08-27T16:39:22;8.00;;;4.32;;
8139;SDS011;4111;50.972;7.072;2022-08-27T16:41:49;5.80;;;4.70;;
8139;SDS011;4111;50.972;7.072;2022-08-27T16:44:16;6.50;;;4.77;;
8139;SDS011;4111;50.972;7.072;2022-08-27T16:46:43;6.90;;;4.93;;
8139;SDS011;4111;50.972;7.072;2022-08-27T16:49:09;9.40;;;4.77;;
8139;SDS011;4111;50.972;7.072;2022-08-27T16:51:55;4.83;;;3.97;;
8139;SDS011;4111;50.972;7.072;2022-08-27T16:54:21;5.82;;;4.20;;
8139;SDS011;4111;50.972;7.072;2022-08-27T16:56:48;6.57;;;3.93;;
8139;SDS011;4111;50.972;7.072;2022-08-27T16:59:15;10.38;;;4.40;;
8139;SDS011;4111;50.972;7.072;2022-08-27T17:01:41;6.00;;;4.03;;